Time;durP1;ratioP1;P1;durP2;ratioP2;P2;SDS_P1;SDS_P2;PMS_P1;PMS_P2;Temp;Humidity;BMP_temperature;BMP_pressure;BME280_temperature;BME280_humidity;BME280_pressure;Samples;Min_cycle;Max_cycle;Signal;HPM_P1;HPM_P2
2022/09/17 00:04:04;;;;;;;2.50;2.30;;;14.50;99.90;;;;;;10403579;28;20191;-80
2022/09/17 00:09:08;;;;;;;2.23;2.13;;;14.50;99.90;;;;;;10425863;28;20230;-80
2022/09/17 00:14:14;;;;;;;2.50;2.40;;;14.50;99.90;;;;;;10382982;28;20201;-80
2022/09/17 00:19:18;;;;;;;3.07;2.57;;;14.50;99.90;;;;;;10435427;28;20608;-80
2022/09/17 00:24:21;;;;;;;2.17;2.07;;;14.50;99.90;;;;;;10389253;28;20305;-80
2022/09/17 00:29:25;;;;;;;2.70;2.50;;;14.40;99.90;;;;;;10435542;28;20221;-81
2022/09/17 00:34:27;;;;;;;2.83;2.63;;;14.40;99.90;;;;;;10414588;28;20210;-80
2022/09/17 00:39:29;;;;;;;3.10;2.90;;;14.40;99.90;;;;;;10438092;28;20225;-80
2022/09/17 00:44:48;;;;;;;3.20;3.00;;;14.40;99.90;;;;;;10409981;28;20233;-81
2022/09/17 00:49:55;;;;;;;3.00;2.90;;;14.30;99.90;;;;;;10422222;28;20217;-80
2022/09/17 00:55:02;;;;;;;3.50;3.20;;;14.40;99.90;;;;;;10373106;28;20198;-80
2022/09/17 01:00:08;;;;;;;3.60;3.30;;;14.40;99.90;;;;;;10417053;28;20210;-80
2022/09/17 01:05:11;;;;;;;3.30;3.10;;;14.40;99.90;;;;;;10386177;28;20265;-80
2022/09/17 01:10:27;;;;;;;3.40;3.20;;;14.40;99.90;;;;;;10417926;28;20604;-80
2022/09/17 01:15:40;;;;;;;4.20;3.23;;;14.30;99.90;;;;;;10388071;28;20716;-80
2022/09/17 01:21:18;;;;;;;3.20;3.10;;;14.20;99.90;;;;;;10419662;28;20218;-80
2022/09/17 01:26:45;;;;;;;3.13;3.03;;;14.20;99.90;;;;;;10385443;28;20274;-80
2022/09/17 01:31:54;;;;;;;3.30;3.20;;;14.10;99.90;;;;;;10418070;28;20215;-80
2022/09/17 01:37:04;;;;;;;3.50;3.30;;;14.00;99.90;;;;;;10383109;28;20190;-80
2022/09/17 01:42:15;;;;;;;3.93;3.60;;;14.00;99.90;;;;;;10415210;28;20221;-80
2022/09/17 01:47:22;;;;;;;3.90;3.60;;;13.90;99.90;;;;;;10387352;28;20217;-80
2022/09/17 01:52:26;;;;;;;3.10;3.00;;;14.00;99.90;;;;;;10414232;28;20230;-80
2022/09/17 01:57:33;;;;;;;3.70;3.40;;;14.00;99.90;;;;;;10369488;28;20194;-80
2022/09/17 02:02:40;;;;;;;4.33;3.67;;;14.00;99.90;;;;;;10415022;28;20229;-80
2022/09/17 02:07:45;;;;;;;3.57;3.27;;;14.10;99.90;;;;;;10387252;28;20263;-80
2022/09/17 02:12:52;;;;;;;3.50;3.30;;;14.10;99.90;;;;;;10416333;28;20272;-80
2022/09/17 02:18:00;;;;;;;9.50;3.93;;;14.10;99.90;;;;;;10387963;28;20281;-80
2022/09/17 02:23:10;;;;;;;3.97;3.30;;;14.10;99.90;;;;;;10415994;28;20210;-80
2022/09/17 02:28:17;;;;;;;3.50;3.30;;;14.10;99.90;;;;;;10389268;28;20305;-80
2022/09/17 02:33:22;;;;;;;3.20;3.10;;;14.10;99.90;;;;;;10414955;28;20241;-80
2022/09/17 02:38:26;;;;;;;4.03;3.83;;;14.10;99.90;;;;;;10391010;28;20730;-80
2022/09/17 02:43:37;;;;;;;3.90;3.60;;;14.10;99.90;;;;;;10419135;28;20297;-80
2022/09/17 02:49:10;;;;;;;5.23;3.03;;;14.10;99.90;;;;;;10396262;28;20221;-81
2022/09/17 02:54:23;;;;;;;2.90;2.50;;;14.10;99.90;;;;;;10414577;28;20675;-79
2022/09/17 02:59:30;;;;;;;3.47;3.27;;;14.10;99.90;;;;;;10402099;28;20252;-80
2022/09/17 03:04:34;;;;;;;3.53;3.33;;;14.10;99.90;;;;;;10397890;28;20683;-80
2022/09/17 03:09:36;;;;;;;3.17;2.97;;;14.10;99.90;;;;;;10430882;23;21703;-78
2022/09/17 03:14:38;;;;;;;5.17;3.43;;;14.10;99.90;;;;;;10414221;28;20570;-77
2022/09/17 03:19:42;;;;;;;5.43;3.60;;;14.00;99.90;;;;;;10400435;28;20249;-78
2022/09/17 03:24:44;;;;;;;3.10;2.80;;;14.00;99.90;;;;;;10383630;28;20578;-77
2022/09/17 03:29:46;;;;;;;6.87;3.30;;;14.00;99.90;;;;;;10400365;28;20214;-78
2022/09/17 03:34:49;;;;;;;5.93;4.90;;;13.90;99.90;;;;;;10383453;28;20198;-77
2022/09/17 03:39:51;;;;;;;3.77;3.50;;;13.80;99.90;;;;;;10398821;28;20218;-78
2022/09/17 03:44:53;;;;;;;3.60;3.30;;;13.80;99.90;;;;;;10382514;28;20632;-78
2022/09/17 03:49:57;;;;;;;4.30;3.90;;;13.80;99.90;;;;;;10402290;28;20704;-78
2022/09/17 03:54:59;;;;;;;4.57;3.90;;;13.80;99.90;;;;;;10383608;28;20194;-77
2022/09/17 04:00:01;;;;;;;4.17;3.80;;;13.80;99.90;;;;;;10402813;28;20219;-78
2022/09/17 04:05:15;;;;;;;4.77;4.40;;;13.80;99.90;;;;;;10391156;28;20233;-78
2022/09/17 04:10:17;;;;;;;7.10;4.17;;;13.70;99.90;;;;;;10391437;28;20280;-78
2022/09/17 04:15:19;;;;;;;5.43;3.73;;;13.70;99.90;;;;;;10394692;28;20194;-78
2022/09/17 04:20:22;;;;;;;3.80;3.50;;;13.60;99.90;;;;;;10426632;28;20222;-78
2022/09/17 04:25:24;;;;;;;4.03;3.30;;;13.60;99.90;;;;;;10403048;28;20213;-77
2022/09/17 04:30:27;;;;;;;4.47;4.23;;;13.60;99.90;;;;;;10410031;28;20591;-78
2022/09/17 04:35:30;;;;;;;4.70;4.30;;;13.60;99.90;;;;;;10386580;28;20244;-78
2022/09/17 04:40:32;;;;;;;3.77;3.57;;;13.60;99.90;;;;;;10410622;28;20208;-78
2022/09/17 04:45:34;;;;;;;4.63;4.17;;;13.60;99.90;;;;;;10387258;28;20210;-78
2022/09/17 04:50:38;;;;;;;4.23;3.77;;;13.60;99.90;;;;;;10410984;28;20296;-78
2022/09/17 04:55:40;;;;;;;4.50;4.10;;;13.60;99.90;;;;;;10386557;28;20194;-77
2022/09/17 05:00:42;;;;;;;6.30;3.50;;;13.60;99.90;;;;;;10411921;28;20310;-78
2022/09/17 05:05:45;;;;;;;4.20;3.90;;;13.70;99.90;;;;;;10382726;28;20665;-77
2022/09/17 05:10:49;;;;;;;8.13;4.40;;;13.70;99.90;;;;;;10410425;28;20248;-77
2022/09/17 05:15:51;;;;;;;4.00;3.63;;;13.70;99.90;;;;;;10383080;28;20190;-79
2022/09/17 05:20:54;;;;;;;6.10;4.33;;;13.80;99.90;;;;;;10418094;28;20266;-79
2022/09/17 05:25:58;;;;;;;3.77;3.20;;;13.80;99.90;;;;;;10387094;28;20241;-78
2022/09/17 05:31:01;;;;;;;7.37;3.87;;;13.80;99.90;;;;;;10417052;28;20218;-79
2022/09/17 05:36:05;;;;;;;6.60;5.87;;;13.90;99.90;;;;;;10389944;28;20658;-78
2022/09/17 05:41:08;;;;;;;8.10;4.17;;;13.90;99.90;;;;;;10416370;28;20225;-78
2022/09/17 05:46:11;;;;;;;4.83;4.23;;;13.80;99.90;;;;;;10384532;28;20233;-78
2022/09/17 05:51:14;;;;;;;4.90;4.60;;;13.80;99.90;;;;;;10417781;28;20206;-78
2022/09/17 05:56:20;;;;;;;4.97;4.50;;;13.70;99.90;;;;;;10386779;28;20629;-80
2022/09/17 06:01:23;;;;;;;5.40;4.20;;;13.70;99.90;;;;;;10415903;28;20748;-80
2022/09/17 06:06:29;;;;;;;7.00;3.70;;;13.70;99.90;;;;;;10389053;28;20682;-80
2022/09/17 06:11:32;;;;;;;4.03;3.60;;;13.80;99.90;;;;;;10418931;28;20269;-80
2022/09/17 06:16:34;;;;;;;5.40;4.90;;;13.90;99.90;;;;;;10384148;28;20224;-80
2022/09/17 06:21:37;;;;;;;5.33;4.90;;;14.00;99.90;;;;;;10413616;28;20238;-80
2022/09/17 06:26:39;;;;;;;5.60;4.57;;;14.10;99.90;;;;;;10392488;28;20232;-78
2022/09/17 06:31:43;;;;;;;5.93;4.77;;;14.20;99.90;;;;;;10410969;28;20293;-78
2022/09/17 06:36:48;;;;;;;5.03;4.67;;;14.20;99.90;;;;;;10377937;28;20194;-78
2022/09/17 06:41:50;;;;;;;4.83;4.33;;;14.30;99.90;;;;;;10411385;28;20206;-78
2022/09/17 06:46:52;;;;;;;5.93;4.47;;;14.30;99.90;;;;;;10376328;28;20226;-78
2022/09/17 06:51:55;;;;;;;4.90;4.60;;;14.40;99.90;;;;;;10393883;28;20268;-78
2022/09/17 06:56:57;;;;;;;4.53;4.13;;;14.50;99.90;;;;;;10374484;28;20697;-78
2022/09/17 07:01:59;;;;;;;3.80;3.53;;;14.60;99.90;;;;;;10394260;28;20216;-78
2022/09/17 07:07:04;;;;;;;4.40;3.57;;;14.60;99.90;;;;;;10376502;28;20738;-78
2022/09/17 07:12:08;;;;;;;3.90;3.60;;;14.70;99.90;;;;;;10413694;28;20240;-77
2022/09/17 07:17:10;;;;;;;3.90;3.40;;;14.60;99.90;;;;;;10373882;28;20191;-77
2022/09/17 07:22:14;;;;;;;5.73;3.23;;;14.50;99.90;;;;;;10414198;28;20249;-78
2022/09/17 07:27:16;;;;;;;3.90;3.60;;;14.40;99.90;;;;;;10376251;28;20218;-78
2022/09/17 07:32:18;;;;;;;4.10;3.80;;;14.30;99.90;;;;;;10412366;28;20336;-77
2022/09/17 07:37:21;;;;;;;2.87;2.63;;;14.20;99.90;;;;;;10371671;28;20183;-78
2022/09/17 07:42:23;;;;;;;5.00;4.60;;;14.10;99.90;;;;;;10370578;28;20773;-78
2022/09/17 07:47:25;;;;;;;6.00;5.60;;;14.00;99.90;;;;;;10412603;28;20230;-77
2022/09/17 07:52:29;;;;;;;5.63;5.00;;;13.80;99.90;;;;;;10371851;28;20675;-78
2022/09/17 07:57:31;;;;;;;6.20;5.80;;;13.70;99.90;;;;;;10411111;28;20194;-78
2022/09/17 08:02:33;;;;;;;4.80;4.27;;;13.60;99.90;;;;;;10381807;28;20217;-78
2022/09/17 08:07:36;;;;;;;7.30;6.80;;;13.40;99.90;;;;;;10411775;28;20595;-79
2022/09/17 08:12:38;;;;;;;7.03;6.50;;;13.40;99.90;;;;;;10381092;28;20226;-79
2022/09/17 08:17:43;;;;;;;8.00;7.47;;;13.40;99.90;;;;;;10419092;28;20197;-79
2022/09/17 08:22:46;;;;;;;7.60;7.10;;;13.30;99.90;;;;;;10382227;28;20214;-80
2022/09/17 08:27:49;;;;;;;6.70;6.30;;;13.30;99.90;;;;;;10416949;28;20217;-79
2022/09/17 08:32:51;;;;;;;6.30;5.80;;;13.40;99.90;;;;;;10390877;28;20219;-78
2022/09/17 08:37:56;;;;;;;6.07;5.57;;;13.40;99.90;;;;;;10419321;28;20198;-79
2022/09/17 08:43:01;;;;;;;6.13;5.53;;;13.50;99.90;;;;;;10383460;28;20416;-80
2022/09/17 08:48:05;;;;;;;7.50;4.70;;;13.70;99.90;;;;;;10401438;28;20218;-78
2022/09/17 08:53:42;;;;;;;6.70;6.00;;;13.80;99.90;;;;;;10392083;28;20242;-80
2022/09/17 08:59:07;;;;;;;6.80;5.30;;;14.00;99.90;;;;;;10394903;28;20193;-78
2022/09/17 09:04:45;;;;;;;7.87;5.23;;;14.20;99.90;;;;;;10424045;28;20248;-80
2022/09/17 09:09:53;;;;;;;6.30;5.70;;;14.40;99.90;;;;;;10339220;22;20244;-80
2022/09/17 09:15:00;;;;;;;8.67;5.67;;;14.70;99.90;;;;;;10436458;28;20220;-80
2022/09/17 09:20:03;;;;;;;4.60;3.87;;;14.90;99.90;;;;;;10430644;28;20587;-80
2022/09/17 09:25:18;;;;;;;6.80;6.00;;;15.00;99.90;;;;;;10387476;28;20600;-80
2022/09/17 09:30:22;;;;;;;7.17;6.47;;;15.00;99.90;;;;;;10412626;28;20265;-80
2022/09/17 09:35:26;;;;;;;6.17;5.67;;;15.20;99.90;;;;;;10391747;28;20212;-80
2022/09/17 09:40:37;;;;;;;8.90;6.80;;;15.30;99.90;;;;;;10411524;28;20206;-80
2022/09/17 09:45:54;;;;;;;7.33;6.10;;;15.30;99.90;;;;;;10392642;28;20202;-80
2022/09/17 09:51:10;;;;;;;9.60;5.80;;;15.30;99.90;;;;;;10411439;28;20265;-80
2022/09/17 09:56:33;;;;;;;7.07;5.77;;;15.50;99.90;;;;;;10394859;28;20213;-80
2022/09/17 10:01:38;;;;;;;8.33;6.60;;;15.50;99.90;;;;;;10406513;28;20280;-80
2022/09/17 10:06:40;;;;;;;6.20;5.57;;;15.50;99.90;;;;;;10381742;28;20225;-80
2022/09/17 10:12:00;;;;;;;6.30;5.70;;;15.50;99.90;;;;;;10393190;28;20221;-80
2022/09/17 10:17:19;;;;;;;8.37;5.80;;;15.60;99.90;;;;;;10406249;28;20277;-80
2022/09/17 10:22:29;;;;;;;6.87;6.17;;;15.90;99.90;;;;;;10405130;28;20217;-80
2022/09/17 10:27:35;;;;;;;5.90;5.40;;;16.20;99.90;;;;;;10403185;28;20222;-80
2022/09/17 10:32:37;;;;;;;5.90;5.40;;;16.30;99.90;;;;;;10399045;28;20276;-80
2022/09/17 10:37:44;;;;;;;6.47;5.23;;;16.20;99.90;;;;;;10420555;28;20197;-80
2022/09/17 10:42:49;;;;;;;5.00;4.50;;;16.20;99.90;;;;;;10398499;28;20638;-80
2022/09/17 10:47:52;;;;;;;4.40;4.10;;;16.20;99.90;;;;;;10400035;28;20245;-80
2022/09/17 10:52:56;;;;;;;5.23;4.80;;;16.10;99.90;;;;;;10402642;28;20214;-80
2022/09/17 10:58:21;;;;;;;4.73;4.23;;;16.10;99.90;;;;;;10397619;28;20194;-80
2022/09/17 11:03:59;;;;;;;5.70;3.00;;;16.10;99.90;;;;;;10398440;28;20218;-80
2022/09/17 11:09:10;;;;;;;3.80;3.50;;;16.20;99.90;;;;;;10399334;28;20588;-79
2022/09/17 11:14:25;;;;;;;4.97;4.47;;;16.40;99.90;;;;;;10386712;28;20705;-79
2022/09/17 11:19:40;;;;;;;4.63;4.23;;;16.60;99.90;;;;;;10403429;28;20202;-79
2022/09/17 11:25:00;;;;;;;4.87;3.90;;;16.50;99.90;;;;;;10386761;28;20315;-79
2022/09/17 11:30:16;;;;;;;3.67;2.83;;;16.70;99.90;;;;;;10406644;28;20245;-79
2022/09/17 11:35:22;;;;;;;5.57;4.13;;;16.80;99.90;;;;;;10382497;28;20284;-80
2022/09/17 11:40:29;;;;;;;4.07;3.80;;;16.90;99.90;;;;;;10408037;28;20249;-80
2022/09/17 11:45:36;;;;;;;5.67;4.07;;;17.00;98.70;;;;;;10381835;28;20199;-79
2022/09/17 11:50:45;;;;;;;4.80;3.20;;;17.10;95.80;;;;;;10409131;28;20730;-79
2022/09/17 11:55:51;;;;;;;5.00;3.90;;;17.10;97.50;;;;;;10380303;28;20194;-79
2022/09/17 12:01:01;;;;;;;4.50;4.10;;;17.20;96.70;;;;;;10408583;28;20234;-79
2022/09/17 12:06:09;;;;;;;4.73;4.27;;;17.40;97.20;;;;;;10381801;28;20194;-79
2022/09/17 12:11:15;;;;;;;4.17;3.87;;;17.60;96.00;;;;;;10396100;28;20209;-80
2022/09/17 12:16:25;;;;;;;4.93;4.53;;;17.60;95.20;;;;;;10382113;28;20191;-80
2022/09/17 12:21:34;;;;;;;3.73;3.53;;;17.60;96.10;;;;;;10393529;28;20224;-80
2022/09/17 12:26:57;;;;;;;4.60;4.30;;;17.40;99.00;;;;;;10387377;28;20257;-81
2022/09/17 12:32:10;;;;;;;4.60;3.87;;;17.10;99.50;;;;;;10429025;28;20280;-80
2022/09/17 12:37:19;;;;;;;4.30;3.90;;;16.80;99.70;;;;;;10382650;28;20195;-80
2022/09/17 12:42:36;;;;;;;5.40;3.57;;;16.60;99.90;;;;;;10421169;28;20283;-80
2022/09/17 12:47:59;;;;;;;4.57;4.27;;;16.60;99.90;;;;;;10383550;28;20245;-80
2022/09/17 12:53:15;;;;;;;6.37;4.10;;;16.60;99.90;;;;;;10423522;28;20301;-80
2022/09/17 12:58:30;;;;;;;3.97;3.77;;;16.60;99.30;;;;;;10385306;28;20233;-80
2022/09/17 13:03:40;;;;;;;4.47;4.10;;;16.30;99.90;;;;;;10387805;28;20210;-80
2022/09/17 13:09:03;;;;;;;2.50;2.40;;;16.20;99.90;;;;;;10417069;28;20242;-80
2022/09/17 13:14:16;;;;;;;6.80;4.50;;;16.20;99.90;;;;;;10389478;28;20249;-80
2022/09/17 13:19:30;;;;;;;3.47;3.20;;;16.00;99.90;;;;;;10413058;28;20202;-80
2022/09/17 13:24:34;;;;;;;3.77;3.57;;;15.80;99.90;;;;;;10394118;28;20241;-80
2022/09/17 13:29:59;;;;;;;2.30;2.20;;;15.50;99.90;;;;;;10409264;28;20219;-80
2022/09/17 13:35:45;;;;;;;4.40;4.20;;;15.40;99.90;;;;;;10390228;28;20226;-79
2022/09/17 13:40:47;;;;;;;4.60;4.30;;;15.40;99.90;;;;;;10399693;28;20301;-79
2022/09/17 13:46:09;;;;;;;4.10;3.70;;;15.30;99.90;;;;;;10398585;28;20233;-79
2022/09/17 13:51:57;;;;;;;3.90;3.70;;;15.30;99.90;;;;;;10398302;28;20646;-79
2022/09/17 13:57:10;;;;;;;4.20;4.00;;;15.30;99.90;;;;;;10405224;28;20202;-80
2022/09/17 14:02:35;;;;;;;4.00;3.80;;;15.40;99.90;;;;;;10392173;28;20305;-79
2022/09/17 14:07:47;;;;;;;3.10;3.00;;;15.40;99.90;;;;;;10408338;28;20202;-81
2022/09/17 14:13:41;;;;;;;4.40;4.10;;;15.50;99.90;;;;;;10368565;28;20264;-80
2022/09/17 14:18:57;;;;;;;3.70;3.50;;;15.60;99.90;;;;;;10417495;28;20197;-80
2022/09/17 14:24:02;;;;;;;4.20;4.00;;;15.80;99.90;;;;;;10378986;28;20214;-80
2022/09/17 14:29:13;;;;;;;4.53;4.23;;;16.00;99.90;;;;;;10416487;28;20260;-80
2022/09/17 14:34:21;;;;;;;4.07;3.73;;;16.00;99.90;;;;;;10377485;28;20285;-80
2022/09/17 14:39:24;;;;;;;4.57;4.23;;;15.90;99.90;;;;;;10379490;28;20210;-80
2022/09/17 14:44:33;;;;;;;4.60;4.30;;;15.90;99.90;;;;;;10417495;28;20776;-80
2022/09/17 14:49:37;;;;;;;2.40;2.20;;;15.80;99.90;;;;;;10378916;28;20224;-80
2022/09/17 14:54:42;;;;;;;4.43;4.03;;;16.00;99.90;;;;;;10419449;28;20194;-80
2022/09/17 14:59:50;;;;;;;2.40;2.20;;;16.30;99.90;;;;;;10360904;28;20194;-80
2022/09/17 15:04:52;;;;;;;4.53;3.60;;;16.40;99.90;;;;;;10419123;28;20239;-80
2022/09/17 15:15:00;;;;;;;4.20;4.00;;;16.50;99.90;;;;;;10353459;28;20611;-79
2022/09/17 15:20:06;;;;;;;3.70;3.47;;;16.40;99.90;;;;;;10334482;28;20191;-77
2022/09/17 15:25:13;;;;;;;4.10;3.90;;;16.20;99.90;;;;;;10333282;28;20207;-78
2022/09/17 15:30:19;;;;;;;4.27;4.00;;;16.10;99.90;;;;;;10292442;28;20219;-77
2022/09/17 15:35:26;;;;;;;4.73;4.33;;;16.20;99.90;;;;;;10332128;28;20196;-77
2022/09/17 15:40:31;;;;;;;4.03;3.83;;;16.10;99.90;;;;;;10292424;28;20281;-77
2022/09/17 15:45:38;;;;;;;4.20;4.00;;;16.10;99.90;;;;;;10332217;28;20191;-77
2022/09/17 15:50:52;;;;;;;4.90;4.50;;;16.10;99.90;;;;;;10293577;28;20315;-78
2022/09/17 15:56:06;;;;;;;4.50;4.10;;;16.20;99.90;;;;;;10332819;28;20203;-78
2022/09/17 16:01:52;;;;;;;3.53;3.30;;;16.10;99.70;;;;;;10303307;28;20210;-77
2022/09/17 16:07:00;;;;;;;3.70;3.50;;;16.10;99.90;;;;;;10336901;28;20818;-77
2022/09/17 16:12:02;;;;;;;3.50;3.30;;;16.00;99.90;;;;;;10306508;28;20208;-77
2022/09/17 16:17:26;;;;;;;4.50;4.30;;;15.90;99.90;;;;;;10308571;28;20621;-77
2022/09/17 16:22:28;;;;;;;3.70;3.50;;;15.80;99.90;;;;;;10338629;28;20215;-77
2022/09/17 16:27:35;;;;;;;4.10;3.80;;;15.70;99.90;;;;;;10328734;28;20250;-78
2022/09/17 16:32:38;;;;;;;3.80;3.50;;;15.70;99.90;;;;;;10310116;28;20691;-77
2022/09/17 16:37:40;;;;;;;3.60;3.30;;;15.80;99.90;;;;;;10328213;28;20268;-77
2022/09/17 16:42:42;;;;;;;5.33;4.93;;;15.90;99.90;;;;;;10309839;28;20227;-78
2022/09/17 16:47:46;;;;;;;4.13;3.83;;;15.90;99.90;;;;;;10332431;28;20227;-78
2022/09/17 16:52:48;;;;;;;4.00;3.80;;;15.90;99.90;;;;;;10312213;28;20243;-78
2022/09/17 16:57:50;;;;;;;4.57;4.20;;;15.90;99.90;;;;;;10333175;28;20197;-78
2022/09/17 17:02:55;;;;;;;4.90;4.60;;;15.80;99.90;;;;;;10310667;28;20238;-79
2022/09/17 17:07:58;;;;;;;4.30;3.97;;;15.80;99.90;;;;;;10331359;28;20219;-78
2022/09/17 17:13:00;;;;;;;6.30;5.03;;;15.80;99.90;;;;;;10307371;28;20309;-78
2022/09/17 17:18:03;;;;;;;4.13;3.60;;;15.80;99.90;;;;;;10331804;28;20196;-78
2022/09/17 17:23:05;;;;;;;4.57;3.83;;;15.70;99.90;;;;;;10309913;28;20242;-78
2022/09/17 17:28:07;;;;;;;3.83;3.60;;;15.40;99.90;;;;;;10332722;28;20204;-78
2022/09/17 17:33:11;;;;;;;5.10;4.40;;;15.20;99.90;;;;;;10307593;28;20266;-78
2022/09/17 17:38:13;;;;;;;4.27;4.03;;;15.00;99.90;;;;;;10337255;28;20199;-78
2022/09/17 17:43:15;;;;;;;6.17;4.90;;;14.80;99.90;;;;;;10299580;28;20219;-78
2022/09/17 17:48:18;;;;;;;5.50;5.10;;;14.60;99.90;;;;;;10305008;28;20227;-78
2022/09/17 17:53:20;;;;;;;8.80;5.40;;;14.40;99.90;;;;;;10333543;28;20219;-77
2022/09/17 17:58:23;;;;;;;5.83;5.33;;;14.30;99.90;;;;;;10303807;28;20184;-78
2022/09/17 18:03:26;;;;;;;7.17;6.67;;;14.10;99.90;;;;;;10334406;28;20227;-78
2022/09/17 18:08:28;;;;;;;5.03;4.63;;;14.00;99.90;;;;;;10305684;28;20319;-78
2022/09/17 18:13:31;;;;;;;8.50;7.90;;;13.90;99.90;;;;;;10339696;28;20278;-77
2022/09/17 18:18:36;;;;;;;8.17;7.73;;;13.70;99.90;;;;;;10306425;28;20641;-78
2022/09/17 18:23:40;;;;;;;9.00;8.50;;;13.60;99.90;;;;;;10334742;28;20673;-77
2022/09/17 18:28:42;;;;;;;9.10;8.50;;;13.50;99.90;;;;;;10299996;28;20211;-77
2022/09/17 18:33:46;;;;;;;8.63;8.13;;;13.50;99.90;;;;;;10332091;28;20220;-76
2022/09/17 18:38:48;;;;;;;8.27;7.77;;;13.50;99.90;;;;;;10299457;28;20670;-80
2022/09/17 18:43:50;;;;;;;9.00;8.50;;;13.50;99.90;;;;;;10334171;28;20259;-80
2022/09/17 18:48:53;;;;;;;10.07;9.47;;;13.50;99.90;;;;;;10303665;28;20624;-80
2022/09/17 18:53:57;;;;;;;7.70;7.00;;;13.50;99.90;;;;;;10332981;28;20234;-80
2022/09/17 18:59:00;;;;;;;8.73;8.23;;;13.50;99.90;;;;;;10297444;28;20289;-81
2022/09/17 19:04:06;;;;;;;9.27;8.67;;;13.50;99.90;;;;;;10347275;28;20219;-78
2022/09/17 19:09:10;;;;;;;10.60;9.80;;;13.50;99.90;;;;;;10303053;28;20692;-79
2022/09/17 19:14:12;;;;;;;8.03;7.43;;;13.50;99.90;;;;;;10340116;28;20246;-77
2022/09/17 19:19:15;;;;;;;6.83;6.47;;;13.40;99.90;;;;;;10301260;28;20599;-78
2022/09/17 19:24:17;;;;;;;6.57;6.17;;;13.20;99.90;;;;;;10339397;28;20219;-79
2022/09/17 19:29:20;;;;;;;8.27;7.87;;;12.90;99.90;;;;;;10299737;28;20243;-79
2022/09/17 19:34:23;;;;;;;7.00;6.60;;;12.70;99.90;;;;;;10337250;28;20288;-81
2022/09/17 19:39:25;;;;;;;5.57;5.27;;;12.50;99.90;;;;;;10299618;28;20251;-81
2022/09/17 19:44:28;;;;;;;7.60;7.30;;;12.40;99.90;;;;;;10341071;28;20225;-79
2022/09/17 19:49:32;;;;;;;7.37;7.07;;;12.30;99.90;;;;;;10295821;28;20342;-79
2022/09/17 19:54:34;;;;;;;8.63;8.00;;;12.20;99.90;;;;;;10335507;28;20212;-79
2022/09/17 19:59:36;;;;;;;8.07;7.50;;;12.20;99.90;;;;;;10342246;28;20278;-79
2022/09/17 20:04:40;;;;;;;7.40;6.90;;;12.20;99.90;;;;;;10286820;28;20220;-79
2022/09/17 20:09:42;;;;;;;8.10;7.60;;;12.20;99.90;;;;;;10340293;28;20218;-78
2022/09/17 20:14:44;;;;;;;7.73;7.23;;;12.20;99.90;;;;;;10299375;28;20271;-78
2022/09/17 20:19:47;;;;;;;7.50;7.10;;;12.20;99.90;;;;;;10343113;28;20191;-78
2022/09/17 20:24:49;;;;;;;8.70;8.30;;;12.30;99.90;;;;;;10300763;28;20306;-80
2022/09/17 20:29:51;;;;;;;6.57;5.97;;;12.40;99.90;;;;;;10335227;28;20250;-79
2022/09/17 20:34:54;;;;;;;5.93;5.53;;;12.40;99.90;;;;;;10283223;28;20239;-80
2022/09/17 20:39:56;;;;;;;7.00;6.70;;;12.40;99.90;;;;;;10333533;28;20291;-78
2022/09/17 20:44:58;;;;;;;6.30;6.00;;;12.40;99.90;;;;;;10305543;28;20204;-78
2022/09/17 20:50:02;;;;;;;6.93;6.53;;;12.40;99.90;;;;;;10340295;28;20294;-79
2022/09/17 20:55:05;;;;;;;6.87;6.47;;;12.40;99.90;;;;;;10310239;28;20628;-79
2022/09/17 21:00:17;;;;;;;6.90;6.57;;;12.40;99.90;;;;;;10339548;28;20257;-79
2022/09/17 21:05:20;;;;;;;6.63;6.23;;;12.40;99.90;;;;;;10307067;28;20202;-79
2022/09/17 21:10:22;;;;;;;7.23;6.83;;;12.40;99.90;;;;;;10342918;28;20223;-80
2022/09/17 21:15:25;;;;;;;7.23;6.80;;;12.40;99.90;;;;;;10307718;28;20224;-80
2022/09/17 21:20:28;;;;;;;5.93;5.50;;;12.50;99.90;;;;;;10341462;28;20307;-80
2022/09/17 21:25:30;;;;;;;7.63;6.97;;;12.50;99.90;;;;;;10309080;28;20210;-79
2022/09/17 21:30:32;;;;;;;5.90;5.60;;;12.60;99.90;;;;;;10339397;28;20289;-80
2022/09/17 21:35:35;;;;;;;6.37;5.90;;;12.70;99.90;;;;;;10306369;28;20206;-79
2022/09/17 21:40:37;;;;;;;6.80;6.23;;;12.70;99.90;;;;;;10338939;28;20239;-78
2022/09/17 21:45:39;;;;;;;6.33;5.90;;;12.70;99.90;;;;;;10308666;28;20263;-78
2022/09/17 21:50:43;;;;;;;6.00;5.60;;;12.80;99.90;;;;;;10332622;28;20223;-78
2022/09/17 21:55:45;;;;;;;6.70;6.10;;;12.90;99.90;;;;;;10303104;28;20709;-78
2022/09/17 22:00:48;;;;;;;6.37;5.93;;;12.90;99.90;;;;;;10328299;28;20294;-78
2022/09/17 22:05:51;;;;;;;6.37;5.90;;;12.90;99.90;;;;;;10304832;28;20405;-77
2022/09/17 22:10:59;;;;;;;6.00;5.67;;;12.90;99.90;;;;;;10339438;28;20219;-78
2022/09/17 22:16:03;;;;;;;5.23;4.87;;;12.90;99.90;;;;;;10310969;28;20196;-78
2022/09/17 22:21:14;;;;;;;6.60;4.83;;;12.90;99.90;;;;;;10335553;28;20649;-78
2022/09/17 22:26:17;;;;;;;5.40;5.00;;;12.80;99.90;;;;;;10304811;28;20202;-79
2022/09/17 22:31:20;;;;;;;5.23;4.50;;;12.80;99.90;;;;;;10326025;28;20680;-79
2022/09/17 22:36:27;;;;;;;4.60;4.20;;;12.80;99.90;;;;;;10301011;28;20200;-80
2022/09/17 22:41:30;;;;;;;4.90;4.50;;;12.80;99.90;;;;;;10295263;28;20278;-80
2022/09/17 22:46:34;;;;;;;8.53;5.60;;;12.80;99.90;;;;;;10327032;28;20294;-81
2022/09/17 22:51:39;;;;;;;8.70;7.80;;;12.80;99.90;;;;;;10290494;28;20358;-81
2022/09/17 22:56:42;;;;;;;4.00;3.70;;;12.90;99.90;;;;;;10327896;28;20681;-80
2022/09/17 23:01:44;;;;;;;4.73;3.63;;;12.90;99.90;;;;;;10303379;28;20212;-80
2022/09/17 23:06:48;;;;;;;6.00;3.20;;;13.00;99.90;;;;;;10324578;28;20210;-80
2022/09/17 23:11:50;;;;;;;4.07;3.40;;;13.00;99.90;;;;;;10300956;28;20315;-79
2022/09/17 23:16:52;;;;;;;4.10;3.07;;;13.00;99.90;;;;;;10328967;28;20223;-80
2022/09/17 23:21:55;;;;;;;6.43;2.97;;;13.00;99.90;;;;;;10330942;28;20211;-79
2022/09/17 23:26:58;;;;;;;6.47;3.07;;;13.00;99.90;;;;;;10297867;28;20287;-80
2022/09/17 23:38:16;;;;;;;5.53;2.80;;;13.10;99.90;;;;;;10288647;28;20366;-81
2022/09/17 23:43:18;;;;;;;4.20;2.93;;;13.10;99.90;;;;;;10309649;28;20226;-79
2022/09/17 23:48:20;;;;;;;8.40;3.13;;;13.10;99.90;;;;;;10312464;28;20566;-78
2022/09/17 23:53:24;;;;;;;7.20;2.83;;;13.10;99.90;;;;;;10330707;28;20258;-79
2022/09/17 23:58:28;;;;;;;4.80;2.60;;;13.10;99.90;;;;;;10333256;28;20222;-80
